Time;durP1;ratioP1;P1;durP2;ratioP2;P2;SDS_P1;SDS_P2;PMS_P1;PMS_P2;Temp;Humidity;BMP_temperature;BMP_pressure;BME280_temperature;BME280_humidity;BME280_pressure;Samples;Min_cycle;Max_cycle;Signal;HPM_P1;HPM_P2
2022/08/24 00:02:24;;;;;;;23.90;14.17;;;;;;;26.69;100.00;101576.84;5078517;28;20061;-63
2022/08/24 00:04:52;;;;;;;19.77;12.90;;;;;;;26.70;100.00;101573.00;5080286;28;20056;-63
2022/08/24 00:07:18;;;;;;;24.33;13.50;;;;;;;26.73;100.00;101583.41;5082197;28;20029;-63
2022/08/24 00:09:45;;;;;;;20.50;13.27;;;;;;;26.64;100.00;101579.66;5077525;28;20083;-63
2022/08/24 00:12:12;;;;;;;22.57;13.17;;;;;;;26.64;100.00;101576.91;5077450;28;20025;-63
2022/08/24 00:14:39;;;;;;;20.83;12.93;;;;;;;26.56;100.00;101578.34;5077097;28;20037;-64
2022/08/24 00:17:04;;;;;;;;;;;;;;;26.51;100.00;101580.28;5080177;28;20029;-62
2022/08/24 00:19:30;;;;;;;23.33;14.03;;;;;;;26.48;100.00;101596.22;5079594;28;19962;-63
2022/08/24 00:21:56;;;;;;;19.27;13.32;;;;;;;26.51;100.00;101591.25;5078141;28;20036;-64
2022/08/24 00:24:22;;;;;;;21.08;12.80;;;;;;;26.48;100.00;101592.66;5076135;28;20044;-64
2022/08/24 00:26:47;;;;;;;;;;;;;;;26.41;100.00;101587.50;5077588;28;20048;-63
2022/08/24 00:29:15;;;;;;;22.87;13.83;;;;;;;26.37;100.00;101586.44;5076557;28;19913;-63
2022/08/24 00:31:41;;;;;;;22.60;14.47;;;;;;;26.38;100.00;101589.97;5077995;28;20032;-64
2022/08/24 00:34:07;;;;;;;;;;;;;;;26.33;100.00;101602.63;5076729;28;20058;-63
2022/08/24 00:36:34;;;;;;;21.93;13.27;;;;;;;26.35;100.00;101596.88;5076711;28;19952;-63
2022/08/24 00:39:00;;;;;;;21.67;13.90;;;;;;;26.28;100.00;101604.56;5071713;28;20037;-63
2022/08/24 00:41:27;;;;;;;22.27;14.30;;;;;;;26.26;100.00;101595.81;5081109;28;20071;-62
2022/08/24 00:43:57;;;;;;;19.80;13.33;;;;;;;26.26;100.00;101588.44;5074820;28;20108;-64
2022/08/24 00:46:27;;;;;;;24.13;14.23;;;;;;;26.20;100.00;101595.84;5078145;28;20028;-62
2022/08/24 00:49:01;;;;;;;24.47;14.73;;;;;;;26.24;100.00;101592.53;5079458;28;20033;-63
2022/08/24 00:51:34;;;;;;;24.57;15.73;;;;;;;26.05;100.00;101594.00;5078639;28;20032;-63
2022/08/24 00:54:09;;;;;;;24.63;15.50;;;;;;;26.08;100.00;101595.38;5080565;28;20029;-64
2022/08/24 00:56:40;;;;;;;24.73;15.50;;;;;;;26.12;100.00;101596.44;5075527;28;20028;-63
2022/08/24 00:59:17;;;;;;;24.27;14.80;;;;;;;26.12;100.00;101596.44;5091884;28;20048;-63
2022/08/24 01:01:43;;;;;;;25.17;14.97;;;;;;;26.13;100.00;101592.59;5076022;28;20034;-63
2022/08/24 01:04:27;;;;;;;26.75;15.38;;;;;;;26.09;100.00;101591.53;5075466;28;20284;-63
2022/08/24 01:06:54;;;;;;;22.43;15.13;;;;;;;26.06;100.00;101594.81;5075305;28;20052;-64
2022/08/24 01:09:21;;;;;;;27.07;15.03;;;;;;;26.07;100.00;101590.97;5075071;28;20052;-64
2022/08/24 01:11:48;;;;;;;28.33;16.83;;;;;;;25.91;100.00;101593.78;5077304;28;20040;-63
2022/08/24 01:14:16;;;;;;;26.03;15.37;;;;;;;25.92;100.00;101595.44;5072436;28;20037;-64
2022/08/24 01:19:59;;;;;;;29.90;17.73;;;;;;;25.95;100.00;101593.22;5074709;28;20036;-64
2022/08/24 01:22:57;;;;;;;26.73;16.17;;;;;;;25.92;100.00;101589.94;5035188;28;20064;-63
2022/08/24 01:25:26;;;;;;;22.97;15.50;;;;;;;25.90;100.00;101594.91;5075727;28;20033;-64
2022/08/24 01:27:57;;;;;;;28.57;15.87;;;;;;;25.90;100.00;101586.69;5074493;28;20031;-64
2022/08/24 01:30:26;;;;;;;23.27;15.40;;;;;;;25.85;100.00;101586.72;5071924;28;20028;-63
2022/08/24 01:32:58;;;;;;;25.47;16.03;;;;;;;25.79;100.00;101593.28;5079918;28;20044;-63
2022/08/24 01:35:24;;;;;;;23.03;15.17;;;;;;;25.72;100.00;101595.53;5075197;28;20046;-63
2022/08/24 01:37:53;;;;;;;20.97;13.67;;;;;;;25.82;100.00;101580.97;5076644;28;20033;-64
2022/08/24 01:40:35;;;;;;;25.70;15.83;;;;;;;25.81;100.00;101591.09;5060716;28;20029;-62
2022/08/24 01:43:03;;;;;;;23.87;15.80;;;;;;;25.86;100.00;101584.78;5073845;28;20033;-63
2022/08/24 01:45:30;;;;;;;17.83;13.17;;;;;;;25.80;100.00;101588.66;5074014;28;20028;-64
2022/08/24 01:47:57;;;;;;;;;;;;;;;25.67;100.00;101587.34;5072044;28;20041;-64
2022/08/24 01:50:24;;;;;;;24.48;15.05;;;;;;;25.65;100.00;101581.31;5074142;28;19912;-65
2022/08/24 01:52:51;;;;;;;25.57;15.83;;;;;;;25.61;100.00;101581.88;5070771;28;20037;-65
2022/08/24 01:55:18;;;;;;;26.27;15.20;;;;;;;25.60;100.00;101579.41;5078288;28;20034;-66
2022/08/24 01:57:43;;;;;;;23.47;16.03;;;;;;;25.56;100.00;101583.81;5069302;28;20108;-64
2022/08/24 02:00:15;;;;;;;23.83;14.90;;;;;;;25.58;100.00;101584.34;5072813;28;20028;-64
2022/08/24 02:02:44;;;;;;;25.03;15.10;;;;;;;25.56;100.00;101581.06;5074559;28;20036;-65
2022/08/24 02:05:11;;;;;;;25.80;15.60;;;;;;;25.55;100.00;101588.44;5072426;28;20024;-64
2022/08/24 02:07:37;;;;;;;24.47;17.13;;;;;;;25.60;100.00;101585.72;5055225;28;20059;-64
2022/08/24 02:10:06;;;;;;;28.60;18.23;;;;;;;25.65;100.00;101589.53;5074941;28;20033;-63
2022/08/24 02:12:33;;;;;;;29.90;18.37;;;;;;;25.56;100.00;101594.75;5075738;28;20032;-65
2022/08/24 02:15:01;;;;;;;29.73;16.47;;;;;;;25.50;100.00;101590.41;5077960;28;20047;-64
2022/08/24 02:17:28;;;;;;;24.63;16.23;;;;;;;25.47;100.00;101597.25;5077105;28;20032;-65
2022/08/24 02:19:59;;;;;;;26.80;18.57;;;;;;;25.46;100.00;101592.84;5073305;28;20033;-64
2022/08/24 02:22:25;;;;;;;;;;;;;;;25.33;100.00;101597.78;5083804;28;20044;-65
2022/08/24 02:24:50;;;;;;;35.07;18.30;;;;;;;25.20;100.00;101601.94;5071823;28;19952;-65
2022/08/24 02:27:16;;;;;;;27.77;18.10;;;;;;;25.18;100.00;101606.06;5073545;28;20036;-65
2022/08/24 02:29:42;;;;;;;28.23;17.33;;;;;;;25.21;100.00;101605.50;5072220;28;20089;-65
2022/08/24 02:32:09;;;;;;;24.00;16.33;;;;;;;25.22;100.00;101607.13;5074535;28;20124;-64
2022/08/24 02:34:35;;;;;;;23.60;16.90;;;;;;;25.24;100.00;101610.41;5067257;28;20033;-64
2022/08/24 02:37:01;;;;;;;30.92;18.25;;;;;;;25.24;100.00;101610.41;5075321;28;20033;-65
2022/08/24 02:39:28;;;;;;;24.65;17.02;;;;;;;25.23;100.00;101606.03;5075178;28;20025;-64
2022/08/24 02:41:54;;;;;;;29.80;18.33;;;;;;;25.23;100.00;101614.25;5058333;28;20032;-65
2022/08/24 02:44:21;;;;;;;29.50;18.37;;;;;;;25.19;100.00;101603.03;5075069;28;20065;-64
2022/08/24 02:46:47;;;;;;;29.33;17.70;;;;;;;25.17;100.00;101607.16;5077315;28;20048;-65
2022/08/24 02:49:13;;;;;;;28.43;17.03;;;;;;;25.16;100.00;101597.31;5076633;28;20096;-64
2022/08/24 02:51:43;;;;;;;23.20;16.90;;;;;;;25.15;100.00;101596.47;5062663;28;20029;-65
2022/08/24 02:54:10;;;;;;;26.57;16.07;;;;;;;25.15;100.00;101590.19;5059914;28;20109;-65
2022/08/24 02:56:36;;;;;;;29.37;18.67;;;;;;;25.11;100.00;101595.38;5078694;28;20028;-64
2022/08/24 02:59:01;;;;;;;28.48;17.75;;;;;;;25.11;100.00;101594.56;5077077;28;20032;-65
2022/08/24 03:01:28;;;;;;;28.98;18.85;;;;;;;25.11;100.00;101597.28;5083837;28;20053;-65
2022/08/24 03:03:55;;;;;;;31.13;18.83;;;;;;;25.06;100.00;101596.19;5071514;28;20025;-66
2022/08/24 03:06:21;;;;;;;29.73;19.30;;;;;;;25.07;100.00;101594.31;5069184;28;20037;-64
2022/08/24 03:08:47;;;;;;;;;;;;;;;24.98;100.00;101591.31;5069929;28;20059;-64
2022/08/24 03:11:13;;;;;;;32.30;19.87;;;;;;;25.03;100.00;101598.69;5069911;28;19935;-65
2022/08/24 03:13:39;;;;;;;;;;;;;;;25.00;100.00;101594.56;5072803;28;20033;-64
2022/08/24 03:16:06;;;;;;;30.53;20.33;;;;;;;25.09;100.00;101602.22;5074331;28;19908;-64
2022/08/24 03:18:33;;;;;;;30.47;21.07;;;;;;;25.13;100.00;101601.41;5073753;28;20032;-66
2022/08/24 03:21:00;;;;;;;33.20;20.92;;;;;;;25.12;100.00;101601.66;5076067;28;20036;-66
2022/08/24 03:23:26;;;;;;;32.83;20.90;;;;;;;25.03;100.00;101598.69;5075984;28;20057;-65
2022/08/24 03:25:53;;;;;;;29.83;19.33;;;;;;;24.96;100.00;101596.22;5077198;28;20033;-65
2022/08/24 03:28:20;;;;;;;31.60;20.47;;;;;;;25.05;100.00;101602.78;5078507;28;20051;-65
2022/08/24 03:30:47;;;;;;;32.57;20.43;;;;;;;25.05;100.00;101601.97;5078780;28;20044;-64
2022/08/24 03:33:13;;;;;;;;;;;;;;;25.06;100.00;101598.13;5082025;28;20056;-65
2022/08/24 03:35:38;;;;;;;28.70;20.40;;;;;;;25.11;100.00;101608.22;5079911;28;19916;-65
2022/08/24 03:38:04;;;;;;;30.73;20.13;;;;;;;25.05;100.00;101612.91;5062385;28;20104;-64
2022/08/24 03:40:32;;;;;;;;;;;;;;;25.09;100.00;101607.69;5071344;28;20044;-65
2022/08/24 03:42:59;;;;;;;33.07;20.27;;;;;;;25.04;100.00;101620.28;5077424;28;19923;-64
2022/08/24 03:45:28;;;;;;;29.57;20.37;;;;;;;25.09;100.00;101613.16;5072097;28;20040;-65
2022/08/24 03:47:54;;;;;;;31.53;21.27;;;;;;;24.66;100.00;101610.69;5077437;28;20029;-65
2022/08/24 03:50:21;;;;;;;28.93;18.70;;;;;;;24.61;100.00;101614.22;5064703;28;20127;-65
2022/08/24 03:52:47;;;;;;;28.97;19.30;;;;;;;24.55;100.00;101612.59;5073207;28;20052;-65
2022/08/24 03:55:13;;;;;;;29.17;19.67;;;;;;;24.67;100.00;101613.13;5075125;28;20041;-65
2022/08/24 03:57:40;;;;;;;33.20;20.83;;;;;;;24.73;100.00;101611.22;5076861;28;20037;-65
2022/08/24 04:00:09;;;;;;;33.37;21.13;;;;;;;24.87;100.00;101611.53;5075674;28;20040;-65
2022/08/24 04:02:40;;;;;;;27.30;19.70;;;;;;;24.97;100.00;101608.81;5079364;28;20037;-64
2022/08/24 04:05:07;;;;;;;30.40;21.50;;;;;;;24.92;100.00;101620.56;5079452;28;20032;-66
2022/08/24 04:07:34;;;;;;;32.60;21.70;;;;;;;24.91;100.00;101618.09;5082209;28;20024;-66
2022/08/24 04:10:00;;;;;;;34.80;20.37;;;;;;;25.01;100.00;101617.28;5081354;28;20040;-65
2022/08/24 04:12:26;;;;;;;30.48;20.33;;;;;;;25.03;100.00;101612.38;5082878;28;20048;-65
2022/08/24 04:14:56;;;;;;;27.50;18.77;;;;;;;25.10;100.00;101620.28;5079869;28;20042;-64
2022/08/24 04:17:22;;;;;;;29.53;19.63;;;;;;;25.01;100.00;101614.53;5075530;28;20025;-65
2022/08/24 04:19:58;;;;;;;26.87;19.43;;;;;;;24.89;100.00;101614.81;5080625;28;20033;-65
2022/08/24 04:22:33;;;;;;;31.03;20.27;;;;;;;24.76;100.00;101610.72;5078585;28;20045;-66
2022/08/24 04:25:03;;;;;;;29.07;20.37;;;;;;;24.73;100.00;101614.81;5095822;28;20024;-66
2022/08/24 04:27:28;;;;;;;30.63;21.07;;;;;;;24.77;100.00;101612.34;5097715;28;20048;-64
2022/08/24 04:29:54;;;;;;;28.20;19.23;;;;;;;24.59;100.00;101619.16;5080236;28;20036;-66
2022/08/24 04:32:21;;;;;;;32.13;19.57;;;;;;;24.68;100.00;101622.16;5080625;28;20056;-66
2022/08/24 04:34:47;;;;;;;29.85;19.42;;;;;;;24.71;100.00;101619.72;5076641;28;20032;-65
2022/08/24 04:37:14;;;;;;;38.97;25.97;;;;;;;24.71;100.00;101621.63;5084176;28;20028;-65
2022/08/24 04:39:40;;;;;;;40.45;23.58;;;;;;;24.60;100.00;101623.53;5080812;28;20096;-65
2022/08/24 04:42:20;;;;;;;43.60;24.93;;;;;;;24.54;100.00;101619.16;5079548;28;20032;-66
2022/08/24 04:44:46;;;;;;;34.60;23.02;;;;;;;24.57;100.00;101615.88;5078830;28;20087;-65
2022/08/24 04:47:12;;;;;;;40.93;22.80;;;;;;;24.58;100.00;101620.25;5079746;28;20036;-64
2022/08/24 04:49:38;;;;;;;49.92;32.80;;;;;;;24.58;100.00;101625.72;5078920;28;20029;-65
2022/08/24 04:52:06;;;;;;;;;;;;;;;24.57;100.00;101629.53;5079721;28;20048;-67
2022/08/24 04:54:33;;;;;;;35.90;21.97;;;;;;;24.55;100.00;101629.00;5080168;28;19912;-66
2022/08/24 04:57:12;;;;;;;52.30;32.92;;;;;;;24.55;100.00;101626.25;5077168;28;20036;-65
2022/08/24 04:59:40;;;;;;;50.13;26.77;;;;;;;24.56;100.00;101622.44;5076848;28;20040;-65
2022/08/24 05:02:06;;;;;;;41.60;25.47;;;;;;;24.54;100.00;101630.09;5078729;28;20101;-66
2022/08/24 05:04:32;;;;;;;41.28;25.10;;;;;;;24.57;100.00;101635.00;5078030;28;20033;-64
2022/08/24 05:07:07;;;;;;;42.27;23.10;;;;;;;24.56;100.00;101644.31;5077022;28;20047;-66
2022/08/24 05:09:33;;;;;;;35.60;21.93;;;;;;;24.59;100.00;101638.28;5062922;28;20041;-64
2022/08/24 05:12:00;;;;;;;;;;;;;;;24.56;100.00;101636.09;5078039;28;20028;-65
2022/08/24 05:14:31;;;;;;;50.90;26.10;;;;;;;24.74;100.00;101638.31;5075626;28;19913;-65
2022/08/24 05:16:57;;;;;;;;;;;;;;;24.77;100.00;101646.00;5082014;28;20031;-66
2022/08/24 05:19:23;;;;;;;40.37;25.47;;;;;;;24.80;100.00;101646.56;5076011;28;19938;-66
2022/08/24 05:21:49;;;;;;;33.25;23.30;;;;;;;24.71;100.00;101647.06;5065306;28;20036;-65
2022/08/24 05:24:15;;;;;;;30.73;22.30;;;;;;;24.71;100.00;101643.50;5081271;28;20040;-65
2022/08/24 05:26:40;;;;;;;33.15;23.85;;;;;;;24.73;100.00;101644.88;5079757;28;20041;-65
2022/08/24 05:29:06;;;;;;;32.28;24.23;;;;;;;24.73;100.00;101644.88;5093646;28;20037;-64
2022/08/24 05:31:45;;;;;;;38.17;26.53;;;;;;;24.71;100.00;101644.34;5077050;28;20036;-66
2022/08/24 05:34:13;;;;;;;36.00;26.63;;;;;;;24.73;100.00;101650.34;5078241;28;20067;-64
2022/08/24 05:36:40;;;;;;;40.00;27.83;;;;;;;24.80;100.00;101649.28;5075202;28;20079;-65
2022/08/24 05:39:11;;;;;;;41.77;27.73;;;;;;;24.76;100.00;101654.47;5080219;28;20060;-65
2022/08/24 05:41:41;;;;;;;42.47;28.47;;;;;;;24.77;100.00;101656.94;5073546;28;20095;-65
2022/08/24 05:44:16;;;;;;;42.43;27.83;;;;;;;24.82;100.00;101658.03;5074138;28;20487;-66
2022/08/24 05:46:42;;;;;;;51.47;29.20;;;;;;;24.86;100.00;101656.41;5072604;28;20041;-66
2022/08/24 05:49:10;;;;;;;44.40;30.47;;;;;;;24.88;100.00;101662.41;5075663;28;20100;-66
2022/08/24 05:51:37;;;;;;;42.30;29.10;;;;;;;24.92;100.00;101658.88;5078082;28;20033;-66
2022/08/24 05:54:08;;;;;;;43.43;28.77;;;;;;;24.88;100.00;101660.50;5075173;28;20039;-66
2022/08/24 05:56:46;;;;;;;40.53;28.63;;;;;;;24.92;100.00;101652.59;5074218;28;20017;-67
2022/08/24 05:59:13;;;;;;;41.25;26.02;;;;;;;24.96;100.00;101653.69;5075800;28;20119;-66
2022/08/24 06:01:40;;;;;;;46.20;27.83;;;;;;;25.00;100.00;101657.50;5073159;28;20039;-64
2022/08/24 06:04:05;;;;;;;39.87;27.13;;;;;;;25.20;100.00;101653.13;5077420;28;20033;-66
2022/08/24 06:06:32;;;;;;;42.10;26.98;;;;;;;25.23;100.00;101655.31;5075369;28;20052;-65
2022/08/24 06:08:59;;;;;;;45.10;27.23;;;;;;;25.32;100.00;101661.03;5075716;28;20108;-66
2022/08/24 06:11:36;;;;;;;42.57;25.97;;;;;;;25.40;100.00;101662.41;5073762;28;20045;-65
2022/08/24 06:14:13;;;;;;;40.90;25.70;;;;;;;25.45;100.00;101665.13;5072771;28;20052;-66
2022/08/24 06:16:53;;;;;;;57.43;28.37;;;;;;;25.32;100.00;101670.06;5078164;28;20084;-66
2022/08/24 06:19:21;;;;;;;42.60;25.87;;;;;;;25.43;100.00;101670.88;5061802;28;20089;-64
2022/08/24 06:21:50;;;;;;;48.93;27.47;;;;;;;25.62;100.00;101682.13;5071868;28;20024;-66
2022/08/24 06:24:16;;;;;;;39.37;26.43;;;;;;;25.63;100.00;101678.28;5078875;28;20029;-65
2022/08/24 06:29:29;;;;;;;40.97;24.77;;;;;;;25.77;100.00;101691.38;5071490;28;20055;-65
2022/08/24 06:32:01;;;;;;;38.80;25.43;;;;;;;25.87;100.00;101683.13;5072382;28;20044;-66
2022/08/24 06:34:29;;;;;;;44.80;24.73;;;;;;;25.84;100.00;101689.19;5072121;28;20037;-67
2022/08/24 06:36:55;;;;;;;40.77;25.87;;;;;;;26.00;100.00;101686.38;5070821;28;20053;-66
2022/08/24 06:39:22;;;;;;;35.03;22.87;;;;;;;25.95;100.00;101694.59;5074764;28;20047;-68
2022/08/24 06:41:51;;;;;;;39.47;23.97;;;;;;;26.06;100.00;101693.47;5077876;28;20100;-66
2022/08/24 06:44:28;;;;;;;37.33;23.60;;;;;;;26.17;100.00;101695.09;5075932;28;20632;-67
2022/08/24 06:47:02;;;;;;;38.47;25.23;;;;;;;26.20;100.00;101697.28;5073968;28;20036;-66
2022/08/24 06:49:27;;;;;;;36.80;22.98;;;;;;;26.30;100.00;101690.13;5058650;28;20048;-65
2022/08/24 06:51:53;;;;;;;38.37;24.40;;;;;;;26.25;100.00;101687.38;5059203;28;20036;-67
2022/08/24 06:54:22;;;;;;;46.80;25.83;;;;;;;26.23;100.00;101700.56;5081745;28;20055;-66
2022/08/24 06:56:48;;;;;;;38.00;22.87;;;;;;;26.15;100.00;101694.53;5078917;28;20036;-67
2022/08/24 06:59:14;;;;;;;;;;;;;;;26.21;100.00;101695.38;5078459;28;20036;-66
2022/08/24 07:01:40;;;;;;;32.73;22.57;;;;;;;26.19;100.00;101703.06;5082570;28;19984;-66
2022/08/24 07:04:06;;;;;;;36.55;23.80;;;;;;;26.27;100.00;101699.72;5081202;28;20048;-66
2022/08/24 07:06:52;;;;;;;38.77;24.57;;;;;;;26.29;100.00;101699.41;5081601;28;20063;-67
2022/08/24 07:09:18;;;;;;;47.70;25.60;;;;;;;26.34;100.00;101707.66;5060414;28;20044;-68
2022/08/24 07:11:45;;;;;;;35.77;24.17;;;;;;;26.31;100.00;101708.22;5083191;28;20106;-66
2022/08/24 07:14:12;;;;;;;41.83;25.17;;;;;;;26.23;100.00;101706.88;5080572;28;20040;-67
2022/08/24 07:16:39;;;;;;;295.90;173.93;;;;;;;26.48;100.00;101714.13;5081055;28;20036;-67
2022/08/24 07:19:06;;;;;;;40.83;25.83;;;;;;;26.58;100.00;101706.97;5083309;28;20036;-66
2022/08/24 07:21:31;;;;;;;35.33;25.23;;;;;;;26.54;100.00;101711.38;5080470;28;20058;-67
2022/08/24 07:23:59;;;;;;;121.63;70.67;;;;;;;26.56;100.00;101706.44;5078572;28;20045;-68
2022/08/24 07:26:29;;;;;;;91.53;52.40;;;;;;;26.49;100.00;101714.97;5079196;28;20067;-68
2022/08/24 07:29:05;;;;;;;57.63;33.67;;;;;;;26.61;100.00;101709.13;5077661;28;20029;-69
2022/08/24 07:31:41;;;;;;;36.93;23.87;;;;;;;26.76;100.00;101709.06;5077612;28;20041;-67
2022/08/24 07:34:19;;;;;;;38.30;24.27;;;;;;;26.72;100.00;101702.47;5065987;28;20034;-68
2022/08/24 07:36:49;;;;;;;39.57;25.03;;;;;;;26.64;100.00;101711.31;5081027;28;20057;-68
2022/08/24 07:39:15;;;;;;;39.37;23.33;;;;;;;26.84;100.00;101709.53;5082024;28;20051;-69
2022/08/24 07:41:41;;;;;;;;;;;;;;;26.89;100.00;101723.25;5083218;28;20033;-68
2022/08/24 07:44:08;;;;;;;44.33;25.17;;;;;;;26.86;100.00;101718.34;5080438;28;19963;-67
2022/08/24 07:46:34;;;;;;;92.17;53.60;;;;;;;26.67;100.00;101720.91;5078937;28;20033;-67
2022/08/24 07:49:04;;;;;;;125.83;72.57;;;;;;;26.74;100.00;101719.47;5075669;28;20131;-68
2022/08/24 07:51:31;;;;;;;38.63;24.97;;;;;;;26.94;100.00;101720.47;5068228;28;20052;-51
2022/08/24 07:53:56;;;;;;;;;;;;;;;27.14;100.00;101724.16;5070916;28;21290;-51
2022/08/24 07:56:27;;;;;;;42.27;24.40;;;;;;;27.48;100.00;101724.13;5072624;28;19924;-48
2022/08/24 07:58:55;;;;;;;45.80;25.87;;;;;;;27.47;100.00;101721.69;5074594;28;20144;-47
2022/08/24 08:01:21;;;;;;;37.50;24.13;;;;;;;27.43;100.00;101720.59;5071533;28;20043;-47
2022/08/24 08:03:47;;;;;;;;;;;;;;;27.46;100.00;101726.34;5074748;28;20032;-48
2022/08/24 08:06:12;;;;;;;38.27;22.50;;;;;;;27.66;100.00;101721.78;5074941;28;19925;-46
2022/08/24 08:08:39;;;;;;;;;;;;;;;27.63;100.00;101725.13;5078277;28;20067;-48
2022/08/24 08:11:07;;;;;;;38.88;24.40;;;;;;;27.95;100.00;101722.88;5075647;28;19912;-50
2022/08/24 08:13:34;;;;;;;36.47;21.93;;;;;;;27.99;100.00;101723.91;5080661;28;20041;-46
2022/08/24 08:16:00;;;;;;;36.57;22.93;;;;;;;28.28;100.00;101728.53;5073593;28;20033;-48
2022/08/24 08:18:27;;;;;;;;;;;;;;;28.27;100.00;101732.41;5078046;28;20036;-47
2022/08/24 08:20:54;;;;;;;38.37;22.63;;;;;;;28.11;100.00;101734.50;5074052;28;19984;-49
2022/08/24 08:26:20;;;;;;;34.03;20.85;;;;;;;28.68;100.00;101740.09;5077951;28;19940;-49
2022/08/24 08:29:01;;;;;;;32.53;20.73;;;;;;;28.89;100.00;101745.34;5091882;28;20053;-50
2022/08/24 08:31:29;;;;;;;29.50;18.63;;;;;;;28.90;100.00;101749.72;5083304;28;20024;-54
2022/08/24 08:33:55;;;;;;;;;;;;;;;29.12;100.00;101749.09;5077240;28;20054;-50
2022/08/24 08:36:22;;;;;;;26.20;16.83;;;;;;;29.03;100.00;101746.19;5073371;28;19950;-51
2022/08/24 08:38:49;;;;;;;23.50;14.70;;;;;;;29.18;100.00;101750.66;5075266;28;20032;-49
2022/08/24 08:41:30;;;;;;;23.13;12.13;;;;;;;29.27;100.00;101745.25;5075456;28;20038;-51
2022/08/24 08:44:43;;;;;;;21.73;13.13;;;;;;;29.52;100.00;101747.91;5075491;28;20064;-50
2022/08/24 08:47:37;;;;;;;15.40;8.85;;;;;;;29.24;100.00;101737.59;5074980;28;20047;-47
2022/08/24 08:50:20;;;;;;;22.67;11.95;;;;;;;29.40;100.00;101746.41;5072622;28;20032;-49
2022/08/24 08:53:07;;;;;;;17.45;11.32;;;;;;;29.60;100.00;101749.94;5078976;28;20071;-48
2022/08/24 08:55:52;;;;;;;21.73;10.80;;;;;;;29.88;100.00;101750.81;5075489;28;20021;-49
2022/08/24 08:58:52;;;;;;;18.40;10.27;;;;;;;30.16;100.00;101756.34;5079524;28;20040;-52
2022/08/24 09:01:28;;;;;;;42.33;24.95;;;;;;;29.76;100.00;101753.25;5075541;28;20040;-59
2022/08/24 09:03:58;;;;;;;70.40;41.78;;;;;;;29.86;100.00;101753.06;5076742;28;20025;-60
2022/08/24 09:06:48;;;;;;;174.93;106.22;;;;;;;29.61;100.00;101751.59;5077775;28;20025;-59
2022/08/24 09:09:27;;;;;;;61.22;36.95;;;;;;;30.00;100.00;101757.78;5079535;28;20033;-62
2022/08/24 09:12:02;;;;;;;16.20;9.18;;;;;;;29.60;100.00;101752.72;5071377;28;20028;-59
2022/08/24 09:14:40;;;;;;;17.20;10.70;;;;;;;30.08;100.00;101761.75;5074195;28;20029;-58
2022/08/24 09:17:21;;;;;;;57.15;34.85;;;;;;;30.29;100.00;101756.66;5068495;28;20040;-61
2022/08/24 09:20:17;;;;;;;21.95;14.25;;;;;;;30.60;100.00;101758.72;5076853;28;20029;-55
2022/08/24 09:22:48;;;;;;;43.38;28.27;;;;;;;31.08;100.00;101765.66;5072807;28;20037;-55
2022/08/24 09:25:35;;;;;;;68.93;41.40;;;;;;;31.73;100.00;101757.13;5075477;28;20038;-55
2022/08/24 09:28:24;;;;;;;29.02;19.67;;;;;;;32.41;100.00;101756.06;5073343;28;20029;-55
2022/08/24 09:31:29;;;;;;;39.40;23.90;;;;;;;32.87;100.00;101759.34;5070275;28;20040;-56
2022/08/24 09:34:16;;;;;;;55.30;32.10;;;;;;;33.40;100.00;101756.50;5070167;28;20033;-54
2022/08/24 09:37:11;;;;;;;28.92;17.80;;;;;;;33.80;100.00;101767.34;5072974;28;20045;-56
2022/08/24 09:39:48;;;;;;;46.13;28.73;;;;;;;34.32;100.00;101768.22;5073963;28;20082;-56
2022/08/24 09:42:38;;;;;;;9.82;5.63;;;;;;;34.71;94.70;101768.94;5074752;28;20036;-60
2022/08/24 09:45:43;;;;;;;10.98;5.80;;;;;;;35.08;92.91;101767.50;5073710;28;20032;-58
2022/08/24 09:48:23;;;;;;;13.85;9.15;;;;;;;35.63;93.60;101770.19;5069878;28;20040;-59
2022/08/24 09:51:20;;;;;;;12.27;4.40;;;;;;;36.25;83.86;101765.44;5071319;28;20041;-61
2022/08/24 09:54:23;;;;;;;9.50;5.05;;;;;;;36.73;80.11;101768.50;5067398;28;20040;-61
2022/08/24 09:56:57;;;;;;;7.20;4.80;;;;;;;36.44;80.40;101775.97;5064478;28;20103;-60
2022/08/24 09:59:46;;;;;;;10.18;4.13;;;;;;;36.98;77.39;101779.53;5068548;28;20130;-62
2022/08/24 10:02:47;;;;;;;9.07;4.50;;;;;;;37.39;73.98;101781.44;5069926;28;20032;-61
2022/08/24 10:05:33;;;;;;;6.82;3.53;;;;;;;38.37;69.04;101776.22;5070336;28;20041;-61
2022/08/24 10:08:26;;;;;;;9.63;4.13;;;;;;;38.94;67.38;101781.41;5067759;28;20029;-62
2022/08/24 10:11:10;;;;;;;8.20;3.47;;;;;;;38.86;65.24;101771.25;5073018;28;20047;-63
2022/08/24 10:13:44;;;;;;;6.55;3.50;;;;;;;39.45;61.77;101785.19;5077837;28;20039;-62
2022/08/24 10:16:22;;;;;;;32.35;21.13;;;;;;;39.71;62.94;101781.59;5077082;28;20041;-62
2022/08/24 10:19:01;;;;;;;36.33;25.00;;;;;;;39.92;62.26;101771.94;5077496;28;20032;-64
2022/08/24 10:21:44;;;;;;;35.65;23.73;;;;;;;40.34;58.79;101775.75;5074717;28;20029;-65
2022/08/24 10:24:31;;;;;;;26.52;13.98;;;;;;;40.25;55.59;101770.41;5075298;28;20052;-65
2022/08/24 10:27:02;;;;;;;;;;;;;;;39.98;58.80;101767.63;5067196;28;20033;-65
2022/08/24 10:29:33;;;;;;;14.50;4.75;;;;;;;40.11;56.85;101762.59;5066519;28;19939;-66
2022/08/24 10:32:24;;;;;;;30.95;20.45;;;;;;;40.58;57.72;101759.63;5076760;28;20062;-66
2022/08/24 10:35:02;;;;;;;14.90;10.00;;;;;;;40.59;54.54;101750.03;5069299;28;20036;-66
2022/08/24 10:41:17;;;;;;;6.65;3.60;;;;;;;40.77;50.92;101760.66;5067392;28;20040;-67
2022/08/24 10:44:04;;;;;;;7.70;3.97;;;;;;;40.14;54.33;101763.84;5068841;28;20047;-67
2022/08/24 10:46:50;;;;;;;8.57;5.15;;;;;;;40.66;54.78;101752.94;5071379;28;20025;-68
2022/08/24 10:49:47;;;;;;;11.65;7.78;;;;;;;40.41;51.39;101752.63;5066825;28;20078;-67
2022/08/24 10:53:04;;;;;;;6.45;2.65;;;;;;;41.56;47.81;101753.03;5071565;28;20037;-68
2022/08/24 10:55:33;;;;;;;10.88;7.68;;;;;;;41.72;45.32;101751.94;5075032;28;20036;-68
2022/08/24 10:58:17;;;;;;;6.70;4.38;;;;;;;41.51;45.44;101758.97;5072604;28;20044;-67
2022/08/24 11:00:43;;;;;;;14.25;5.80;;;;;;;40.59;46.89;101750.03;5077701;28;20060;-69
2022/08/24 11:03:22;;;;;;;22.58;15.63;;;;;;;41.38;47.98;101749.28;5074011;28;20076;-69
2022/08/24 11:05:52;;;;;;;6.35;3.65;;;;;;;41.45;44.92;101752.13;5075730;28;20096;-71
2022/08/24 11:08:32;;;;;;;11.52;5.93;;;;;;;42.14;44.45;101755.44;5075971;28;20036;-68
2022/08/24 11:11:12;;;;;;;5.50;2.80;;;;;;;42.91;43.20;101751.75;5074619;28;20072;-68
2022/08/24 11:13:57;;;;;;;9.50;5.07;;;;;;;43.42;42.58;101754.59;5073307;28;20037;-68
2022/08/24 11:16:45;;;;;;;5.07;2.97;;;;;;;43.61;39.97;101752.56;5070077;28;20033;-67
2022/08/24 11:19:14;;;;;;;5.53;3.25;;;;;;;44.18;39.94;101754.50;5072623;28;20041;-68
2022/08/24 11:21:42;;;;;;;5.70;3.15;;;;;;;44.45;39.17;101744.69;5071395;28;20784;-68
2022/08/24 11:24:25;;;;;;;3.67;1.20;;;;;;;44.03;35.33;101738.81;5071935;28;20033;-66
2022/08/24 11:26:56;;;;;;;3.60;1.48;;;;;;;44.09;36.95;101737.16;5073301;28;20038;-66
2022/08/24 11:29:29;;;;;;;3.65;1.45;;;;;;;43.91;36.74;101742.88;5073578;28;20059;-67
2022/08/24 11:31:54;;;;;;;2.58;1.40;;;;;;;44.56;36.86;101737.00;5070472;28;20037;-65
2022/08/24 11:34:37;;;;;;;4.38;1.00;;;;;;;44.69;34.41;101738.13;5073266;28;20032;-65
2022/08/24 11:37:03;;;;;;;6.53;1.55;;;;;;;43.81;34.95;101739.66;5077121;28;20047;-65
2022/08/24 11:39:35;;;;;;;6.57;1.48;;;;;;;43.09;36.77;101732.06;5079944;28;20100;-65
2022/08/24 11:42:25;;;;;;;6.07;1.13;;;;;;;42.78;39.58;101727.97;5077920;28;20029;-65
2022/08/24 11:45:13;;;;;;;3.42;1.50;;;;;;;42.47;40.75;101728.28;5078759;28;20067;-65